createdAt,value
2018-06-03T00:01:31.818Z,22.33
2018-06-03T00:03:59.427Z,26.13
2018-06-03T00:06:27.076Z,24.13
2018-06-03T00:08:54.687Z,23.43
2018-06-03T00:11:23.055Z,21.87
2018-06-03T00:13:51.417Z,21.33
2018-06-03T00:16:19.494Z,31.60
2018-06-03T00:18:47.241Z,22.93
2018-06-03T00:21:35.542Z,26.03
2018-06-03T00:24:03.166Z,27.37
2018-06-03T00:26:30.801Z,23.80
2018-06-03T00:28:58.382Z,20.00
2018-06-03T00:31:25.978Z,28.83
2018-06-03T00:33:54.355Z,23.63
2018-06-03T00:36:33.527Z,18.80
2018-06-03T00:39:01.131Z,24.90
2018-06-03T00:41:28.728Z,27.70
2018-06-03T00:43:56.331Z,25.77
2018-06-03T00:46:23.957Z,33.17
2018-06-03T00:48:51.532Z,30.40
2018-06-03T00:51:19.124Z,29.33
2018-06-03T00:53:46.717Z,28.93
2018-06-03T00:59:46.534Z,25.33
2018-06-03T01:02:15.195Z,28.50
2018-06-03T01:04:44.098Z,21.23
2018-06-03T01:07:12.785Z,23.27
2018-06-03T01:09:41.635Z,22.57
2018-06-03T01:12:10.369Z,21.33
2018-06-03T01:14:39.083Z,26.60
2018-06-03T01:17:07.805Z,31.00
2018-06-03T01:19:36.922Z,32.33
2018-06-03T01:22:05.620Z,34.07
2018-06-03T01:24:34.290Z,32.77
2018-06-03T01:27:03.065Z,37.83
2018-06-03T01:29:31.765Z,27.17
2018-06-03T01:32:00.493Z,27.73
2018-06-03T01:34:29.170Z,24.77
2018-06-03T01:36:57.883Z,24.03
2018-06-03T01:39:26.552Z,21.40
2018-06-03T01:41:55.262Z,25.07
2018-06-03T01:44:23.979Z,22.60
2018-06-03T01:46:52.683Z,20.73
2018-06-03T01:49:21.463Z,24.17
2018-06-03T01:51:50.157Z,20.33
2018-06-03T01:54:18.864Z,24.60
2018-06-03T01:56:47.547Z,19.47
2018-06-03T01:59:16.224Z,23.87
2018-06-03T02:01:44.844Z,26.47
2018-06-03T02:04:13.587Z,26.13
2018-06-03T02:06:42.298Z,21.13
2018-06-03T02:09:11.177Z,23.93
2018-06-03T02:11:39.916Z,19.43
2018-06-03T02:14:08.615Z,20.50
2018-06-03T02:16:37.460Z,22.13
2018-06-03T02:19:06.182Z,22.47
2018-06-03T02:21:34.961Z,24.47
2018-06-03T02:24:03.685Z,28.57
2018-06-03T02:26:32.421Z,24.73
2018-06-03T02:29:01.651Z,22.47
2018-06-03T02:31:30.340Z,22.03
2018-06-03T02:33:59.019Z,21.80
2018-06-03T02:36:27.739Z,21.33
2018-06-03T02:38:57.018Z,21.70
2018-06-03T02:41:25.767Z,25.67
2018-06-03T02:43:54.405Z,25.07
2018-06-03T02:46:23.098Z,24.60
2018-06-03T02:48:51.783Z,27.53
2018-06-03T02:51:20.522Z,24.47
2018-06-03T02:53:49.202Z,25.43
2018-06-03T02:56:18.110Z,22.57
2018-06-03T02:58:46.781Z,21.20
2018-06-03T03:01:15.518Z,18.27
2018-06-03T03:03:44.194Z,18.87
2018-06-03T03:06:12.969Z,18.97
2018-06-03T03:08:41.686Z,18.20
2018-06-03T03:11:10.344Z,21.67
2018-06-03T03:13:39.117Z,17.50
2018-06-03T03:16:07.844Z,20.33
2018-06-03T03:18:36.571Z,19.67
2018-06-03T03:21:05.295Z,18.90
2018-06-03T03:23:34.006Z,21.27
2018-06-03T03:26:02.771Z,26.83
2018-06-03T03:28:31.469Z,22.93
2018-06-03T03:31:00.153Z,27.67
2018-06-03T03:33:28.830Z,29.80
2018-06-03T03:35:57.618Z,25.07
2018-06-03T03:38:26.514Z,23.33
2018-06-03T03:40:55.539Z,25.40
2018-06-03T03:43:24.222Z,28.03
2018-06-03T03:45:52.880Z,25.33
2018-06-03T03:48:21.608Z,24.37
2018-06-03T03:50:50.661Z,18.57
2018-06-03T03:53:19.358Z,24.50
2018-06-03T03:55:48.038Z,20.77
2018-06-03T03:58:20.175Z,20.97
2018-06-03T04:00:49.085Z,22.10
2018-06-03T04:03:17.796Z,21.47
2018-06-03T04:05:46.893Z,20.63
2018-06-03T04:08:16.082Z,20.60
2018-06-03T04:10:44.852Z,27.67
2018-06-03T04:13:13.634Z,22.43
2018-06-03T04:15:42.325Z,22.13
2018-06-03T04:18:11.476Z,22.93
2018-06-03T04:20:40.485Z,24.73
2018-06-03T04:23:09.230Z,21.77
2018-06-03T04:25:38.090Z,21.97
2018-06-03T04:28:07.091Z,22.70
2018-06-03T04:30:35.786Z,23.67
2018-06-03T04:33:04.405Z,20.50
2018-06-03T04:35:33.152Z,21.17
2018-06-03T04:38:01.868Z,20.73
2018-06-03T04:40:30.522Z,19.97
2018-06-03T04:42:59.222Z,20.03
2018-06-03T04:45:27.863Z,21.17
2018-06-03T04:47:56.542Z,23.40
2018-06-03T04:50:25.212Z,22.73
2018-06-03T04:52:53.876Z,25.60
2018-06-03T04:55:22.568Z,24.47
2018-06-03T04:57:51.271Z,24.57
2018-06-03T05:00:19.946Z,24.57
2018-06-03T05:02:48.704Z,19.33
2018-06-03T05:05:17.435Z,20.67
2018-06-03T05:07:46.230Z,19.77
2018-06-03T05:10:14.881Z,16.02
2018-06-03T05:12:43.543Z,15.37
2018-06-03T05:15:12.245Z,21.00
2018-06-03T05:17:40.879Z,14.53
2018-06-03T05:20:09.556Z,17.40
2018-06-03T05:22:38.456Z,14.20
2018-06-03T05:25:07.141Z,17.03
2018-06-03T05:27:35.833Z,20.90
2018-06-03T05:30:04.814Z,20.57
2018-06-03T05:32:33.437Z,25.30
2018-06-03T05:35:02.101Z,18.60
2018-06-03T05:37:30.737Z,20.23
2018-06-03T05:39:59.453Z,26.23
2018-06-03T05:42:28.131Z,24.93
2018-06-03T05:44:56.849Z,23.23
2018-06-03T05:47:25.515Z,27.03
2018-06-03T05:49:54.212Z,31.10
2018-06-03T05:52:22.939Z,27.90
2018-06-03T05:54:51.595Z,26.83
2018-06-03T05:57:20.241Z,24.53
2018-06-03T05:59:48.941Z,23.60
2018-06-03T06:02:17.621Z,23.67
2018-06-03T06:04:46.350Z,24.53
2018-06-03T06:07:16.047Z,24.10
2018-06-03T06:09:44.751Z,25.13
2018-06-03T06:12:13.479Z,21.33
2018-06-03T06:14:42.170Z,26.70
2018-06-03T06:17:10.892Z,25.53
2018-06-03T06:19:39.627Z,26.07
2018-06-03T06:22:08.350Z,26.80
2018-06-03T06:24:37.032Z,30.07
2018-06-03T06:27:05.743Z,31.20
2018-06-03T06:29:34.386Z,27.37
2018-06-03T06:32:03.046Z,27.30
2018-06-03T06:34:31.770Z,28.00
2018-06-03T06:37:01.057Z,29.63
2018-06-03T06:39:29.792Z,28.00
2018-06-03T06:41:58.471Z,28.00
2018-06-03T06:44:26.808Z,31.00
2018-06-03T06:46:55.493Z,34.90
2018-06-03T06:49:24.228Z,38.33
2018-06-03T06:51:52.899Z,32.60
2018-06-03T06:54:21.581Z,36.13
2018-06-03T06:56:50.239Z,37.95
2018-06-03T06:59:19.006Z,41.90
2018-06-03T07:01:47.682Z,46.73
2018-06-03T07:04:16.370Z,45.07
2018-06-03T07:06:45.099Z,36.43
2018-06-03T07:09:13.806Z,32.15
2018-06-03T07:11:44.242Z,42.30
2018-06-03T07:14:13.010Z,36.45
2018-06-03T07:16:44.638Z,38.25
2018-06-03T07:19:13.289Z,43.00
2018-06-03T07:21:42.277Z,45.20
2018-06-03T07:24:11.741Z,51.00
2018-06-03T07:26:40.885Z,42.43
2018-06-03T07:29:09.589Z,39.83
2018-06-03T07:31:38.310Z,40.60
2018-06-03T07:34:07.001Z,38.40
2018-06-03T07:36:35.657Z,35.48
2018-06-03T07:39:05.713Z,41.45
2018-06-03T07:41:34.366Z,42.45
2018-06-03T07:44:03.328Z,41.45
2018-06-03T07:46:32.012Z,41.85
2018-06-03T07:49:00.935Z,46.35
2018-06-03T07:51:29.618Z,39.15
2018-06-03T07:53:58.286Z,42.75
2018-06-03T07:56:26.918Z,38.98
2018-06-03T07:58:55.537Z,42.23
2018-06-03T08:01:24.244Z,39.88
2018-06-03T08:03:53.072Z,38.60
2018-06-03T08:06:28.026Z,45.48
2018-06-03T08:08:56.811Z,40.52
2018-06-03T08:11:25.476Z,41.50
2018-06-03T08:13:54.165Z,41.10
2018-06-03T08:16:22.831Z,43.15
2018-06-03T08:18:51.470Z,44.98
2018-06-03T08:21:20.152Z,39.73
2018-06-03T08:23:48.858Z,36.48
2018-06-03T08:26:17.537Z,32.90
2018-06-03T08:28:46.228Z,30.25
2018-06-03T08:31:14.906Z,26.25
2018-06-03T08:33:43.583Z,26.62
2018-06-03T08:36:12.247Z,29.00
2018-06-03T08:38:40.950Z,24.47
2018-06-03T08:41:09.614Z,32.10
2018-06-03T08:43:38.254Z,27.13
2018-06-03T08:46:06.923Z,28.45
2018-06-03T08:48:35.615Z,31.10
2018-06-03T08:51:04.321Z,31.10
2018-06-03T08:53:32.987Z,26.73
2018-06-03T08:56:01.711Z,30.12
2018-06-03T08:58:30.391Z,27.73
2018-06-03T09:00:58.724Z,25.40
2018-06-03T09:03:27.393Z,28.25
2018-06-03T09:05:56.095Z,28.05
2018-06-03T09:08:24.825Z,28.02
2018-06-03T09:10:53.574Z,29.37
2018-06-03T09:13:26.463Z,21.62
2018-06-03T09:15:55.153Z,26.80
2018-06-03T09:18:23.820Z,32.45
2018-06-03T09:20:52.501Z,31.20
2018-06-03T09:23:21.151Z,27.02
2018-06-03T09:25:49.859Z,30.35
2018-06-03T09:28:18.545Z,28.00
2018-06-03T09:30:47.232Z,25.25
2018-06-03T09:33:15.880Z,27.27
2018-06-03T09:35:44.574Z,20.02
2018-06-03T09:38:13.271Z,19.87
2018-06-03T09:40:41.917Z,23.62
2018-06-03T09:43:10.602Z,25.70
2018-06-03T09:45:39.289Z,26.57
2018-06-03T09:48:07.977Z,23.32
2018-06-03T09:50:36.649Z,22.02
2018-06-03T09:53:05.425Z,23.55
2018-06-03T09:55:34.035Z,21.90
2018-06-03T09:58:02.710Z,20.05
2018-06-03T10:00:33.230Z,20.15
2018-06-03T10:03:02.655Z,20.65
2018-06-03T10:05:31.313Z,20.10
2018-06-03T10:07:59.950Z,16.73
2018-06-03T10:10:28.612Z,15.93
2018-06-03T10:12:57.323Z,16.37
2018-06-03T10:15:25.924Z,24.77
2018-06-03T10:17:54.573Z,21.70
2018-06-03T10:20:23.268Z,20.88
2018-06-03T10:22:51.997Z,17.90
2018-06-03T10:25:20.610Z,20.25
2018-06-03T10:27:49.902Z,20.35
2018-06-03T10:30:18.548Z,19.17
2018-06-03T10:32:46.878Z,15.93
2018-06-03T10:35:16.954Z,18.15
2018-06-03T10:37:45.745Z,14.50
2018-06-03T10:40:14.699Z,19.30
2018-06-03T10:42:43.331Z,18.77
2018-06-03T10:45:11.973Z,17.65
2018-06-03T10:47:40.605Z,18.77
2018-06-03T10:50:08.954Z,17.30
2018-06-03T10:52:37.609Z,13.80
2018-06-03T10:55:06.237Z,15.98
2018-06-03T10:57:34.950Z,16.25
2018-06-03T11:00:03.634Z,15.08
2018-06-03T11:02:32.367Z,15.63
2018-06-03T11:05:01.024Z,13.15
2018-06-03T11:07:29.682Z,14.25
2018-06-03T11:09:58.346Z,14.25
2018-06-03T11:12:26.983Z,16.35
2018-06-03T11:14:55.637Z,13.35
2018-06-03T11:17:24.316Z,12.20
2018-06-03T11:19:52.980Z,14.20
2018-06-03T11:22:21.618Z,10.78
2018-06-03T11:24:50.512Z,13.03
2018-06-03T11:27:19.252Z,10.20
2018-06-03T11:29:47.893Z,14.05
2018-06-03T11:32:16.526Z,12.95
2018-06-03T11:34:45.152Z,12.28
2018-06-03T11:37:13.790Z,15.23
2018-06-03T11:39:42.442Z,13.62
2018-06-03T11:42:11.073Z,14.20
2018-06-03T11:44:39.749Z,12.85
2018-06-03T11:47:08.398Z,12.00
2018-06-03T11:49:37.089Z,13.50
2018-06-03T11:52:05.753Z,12.18
2018-06-03T11:54:34.447Z,11.18
2018-06-03T11:57:03.754Z,15.30
2018-06-03T11:59:40.847Z,13.25
2018-06-03T12:02:09.370Z,13.25
2018-06-03T12:04:38.191Z,12.23
2018-06-03T12:07:06.883Z,13.83
2018-06-03T12:09:35.587Z,12.82
2018-06-03T12:12:04.237Z,11.35
2018-06-03T12:14:32.930Z,14.83
2018-06-03T12:17:01.648Z,13.15
2018-06-03T12:19:31.237Z,13.28
2018-06-03T12:21:59.885Z,13.55
2018-06-03T12:24:28.583Z,13.45
2018-06-03T12:26:57.232Z,14.00
2018-06-03T12:29:25.903Z,13.40
2018-06-03T12:31:54.574Z,15.72
2018-06-03T12:34:23.273Z,14.75
2018-06-03T12:36:51.909Z,17.15
2018-06-03T12:39:20.669Z,15.23
2018-06-03T12:41:49.367Z,17.82
2018-06-03T12:44:18.028Z,15.35
2018-06-03T12:46:46.689Z,14.35
2018-06-03T12:49:16.273Z,17.00
2018-06-03T12:51:44.987Z,16.17
2018-06-03T12:54:13.645Z,15.95
2018-06-03T12:56:42.322Z,15.15
2018-06-03T12:59:11.034Z,13.13
2018-06-03T13:01:39.748Z,16.80
2018-06-03T13:04:08.380Z,17.10
2018-06-03T13:06:37.064Z,15.38
2018-06-03T13:09:07.062Z,15.18
2018-06-03T13:11:35.727Z,16.50
2018-06-03T13:14:04.466Z,16.05
2018-06-03T13:16:33.207Z,15.35
2018-06-03T13:19:01.823Z,14.03
2018-06-03T13:21:30.469Z,16.45
2018-06-03T13:23:59.149Z,14.25
2018-06-03T13:26:27.818Z,15.30
2018-06-03T13:28:56.491Z,13.70
2018-06-03T13:31:25.113Z,13.22
2018-06-03T13:33:53.764Z,12.45
2018-06-03T13:36:22.404Z,16.37
2018-06-03T13:38:51.269Z,12.88
2018-06-03T13:41:19.944Z,12.88
2018-06-03T13:43:48.610Z,14.15
2018-06-03T13:46:17.240Z,12.45
2018-06-03T13:48:45.929Z,13.48
2018-06-03T13:51:14.568Z,14.25
2018-06-03T13:53:43.225Z,12.70
2018-06-03T13:56:12.035Z,11.73
2018-06-03T13:58:40.751Z,14.23
2018-06-03T14:01:09.414Z,11.05
2018-06-03T14:03:42.100Z,9.78
2018-06-03T14:06:10.750Z,13.45
2018-06-03T14:08:39.430Z,12.33
2018-06-03T14:11:08.098Z,10.55
2018-06-03T14:13:41.828Z,13.08
2018-06-03T14:16:14.997Z,12.10
2018-06-03T14:18:43.857Z,14.20
2018-06-03T14:21:12.499Z,14.15
2018-06-03T14:23:41.162Z,10.23
2018-06-03T14:26:12.534Z,13.28
2018-06-03T14:28:41.191Z,11.95
2018-06-03T14:31:09.841Z,12.65
2018-06-03T14:33:38.505Z,13.15
2018-06-03T14:36:07.181Z,12.33
2018-06-03T14:38:35.829Z,12.47
2018-06-03T14:41:04.471Z,9.95
2018-06-03T14:43:33.129Z,13.03
2018-06-03T14:46:01.758Z,10.75
2018-06-03T14:48:30.361Z,12.15
2018-06-03T14:50:59.056Z,13.83
2018-06-03T14:53:27.699Z,13.45
2018-06-03T14:55:56.377Z,11.85
2018-06-03T14:58:25.000Z,11.65
2018-06-03T15:00:53.666Z,11.90
2018-06-03T15:03:22.302Z,12.50
2018-06-03T15:05:50.962Z,12.10
2018-06-03T15:08:19.656Z,14.15
2018-06-03T15:10:48.346Z,13.28
2018-06-03T15:13:17.125Z,16.55
2018-06-03T15:15:45.428Z,12.00
2018-06-03T15:18:14.072Z,13.55
2018-06-03T15:20:42.780Z,16.52
2018-06-03T15:23:11.454Z,11.80
2018-06-03T15:25:40.435Z,12.85
2018-06-03T15:28:09.090Z,12.43
2018-06-03T15:30:37.844Z,13.80
2018-06-03T15:33:06.491Z,16.05
2018-06-03T15:35:35.167Z,11.95
2018-06-03T15:38:03.842Z,13.18
2018-06-03T15:40:32.546Z,10.58
2018-06-03T15:43:01.236Z,11.55
2018-06-03T15:45:29.941Z,12.23
2018-06-03T15:47:58.629Z,11.83
2018-06-03T15:50:27.637Z,10.28
2018-06-03T15:52:57.645Z,12.63
2018-06-03T15:55:27.031Z,11.33
2018-06-03T15:57:55.697Z,11.12
2018-06-03T16:00:24.025Z,10.38
2018-06-03T16:02:52.782Z,10.15
2018-06-03T16:05:21.433Z,10.50
2018-06-03T16:07:50.374Z,8.53
2018-06-03T16:10:19.074Z,8.45
2018-06-03T16:12:47.758Z,10.18
2018-06-03T16:15:16.482Z,8.55
2018-06-03T16:17:45.136Z,9.63
2018-06-03T16:20:13.821Z,9.28
2018-06-03T16:22:42.468Z,9.98
2018-06-03T16:25:11.149Z,10.32
2018-06-03T16:27:39.861Z,11.08
2018-06-03T16:30:08.700Z,9.38
2018-06-03T16:32:37.375Z,9.25
2018-06-03T16:35:06.178Z,11.10
2018-06-03T16:37:34.843Z,10.23
2018-06-03T16:40:03.590Z,9.33
2018-06-03T16:42:32.274Z,9.70
2018-06-03T16:45:01.005Z,8.33
2018-06-03T16:47:29.640Z,10.78
2018-06-03T16:49:58.310Z,8.83
2018-06-03T16:52:26.970Z,12.73
2018-06-03T16:54:55.658Z,10.40
2018-06-03T16:57:24.397Z,10.18
2018-06-03T16:59:53.135Z,9.50
2018-06-03T17:02:21.913Z,9.80
2018-06-03T17:04:50.583Z,9.18
2018-06-03T17:07:19.232Z,9.38
2018-06-03T17:09:47.869Z,7.90
2018-06-03T17:12:16.532Z,9.25
2018-06-03T17:14:45.412Z,10.90
2018-06-03T17:17:14.122Z,9.83
2018-06-03T17:19:42.776Z,8.58
2018-06-03T17:22:11.470Z,10.38
2018-06-03T17:24:40.289Z,8.95
2018-06-03T17:27:08.934Z,9.18
2018-06-03T17:29:37.572Z,8.08
2018-06-03T17:32:06.245Z,8.30
2018-06-03T17:34:34.899Z,8.65
2018-06-03T17:37:03.553Z,9.45
2018-06-03T17:39:33.034Z,8.88
2018-06-03T17:42:01.727Z,9.70
2018-06-03T17:44:30.417Z,9.30
2018-06-03T17:46:59.138Z,7.53
2018-06-03T17:49:27.789Z,9.60
2018-06-03T17:51:56.482Z,10.88
2018-06-03T17:54:25.143Z,9.33
2018-06-03T17:56:53.835Z,12.90
2018-06-03T17:59:22.533Z,13.05
2018-06-03T18:01:51.193Z,12.60
2018-06-03T18:04:19.891Z,15.80
2018-06-03T18:06:48.557Z,14.33
2018-06-03T18:09:17.240Z,11.43
2018-06-03T18:11:45.895Z,11.83
2018-06-03T18:14:14.550Z,9.45
2018-06-03T18:16:43.250Z,10.70
2018-06-03T18:19:12.006Z,13.45
2018-06-03T18:21:40.689Z,11.25
2018-06-03T18:24:09.384Z,11.88
2018-06-03T18:26:38.060Z,11.60
2018-06-03T18:29:06.769Z,11.50
2018-06-03T18:31:35.438Z,11.43
2018-06-03T18:34:04.154Z,12.65
2018-06-03T18:36:32.824Z,11.22
2018-06-03T18:39:01.801Z,10.48
2018-06-03T18:41:30.489Z,11.00
2018-06-03T18:43:59.169Z,10.95
2018-06-03T18:46:27.823Z,9.85
2018-06-03T18:48:56.469Z,10.48
2018-06-03T18:51:25.229Z,10.65
2018-06-03T18:53:53.889Z,9.60
2018-06-03T18:56:22.563Z,9.80
2018-06-03T18:58:51.169Z,8.33
2018-06-03T19:01:19.855Z,9.30
2018-06-03T19:03:48.496Z,8.55
2018-06-03T19:06:17.121Z,9.80
2018-06-03T19:08:46.006Z,8.48
2018-06-03T19:11:14.653Z,10.38
2018-06-03T19:13:43.442Z,13.13
2018-06-03T19:16:18.613Z,10.55
2018-06-03T19:18:47.789Z,10.00
2018-06-03T19:21:16.502Z,11.63
2018-06-03T19:23:45.188Z,12.78
2018-06-03T19:26:13.829Z,11.20
2018-06-03T19:28:42.478Z,11.50
2018-06-03T19:31:11.129Z,9.73
2018-06-03T19:33:39.783Z,9.78
2018-06-03T19:36:08.447Z,12.07
2018-06-03T19:38:37.079Z,10.65
2018-06-03T19:41:05.872Z,9.80
2018-06-03T19:43:34.556Z,11.10
2018-06-03T19:46:03.203Z,12.58
2018-06-03T19:48:31.892Z,12.15
2018-06-03T19:51:00.578Z,12.00
2018-06-03T19:53:28.880Z,9.63
2018-06-03T19:55:57.530Z,10.58
2018-06-03T19:58:26.200Z,11.70
2018-06-03T20:00:54.846Z,11.65
2018-06-03T20:03:23.527Z,10.15
2018-06-03T20:05:52.225Z,10.98
2018-06-03T20:08:20.849Z,8.95
2018-06-03T20:10:49.917Z,13.53
2018-06-03T20:13:18.510Z,11.08
2018-06-03T20:15:47.363Z,10.43
2018-06-03T20:18:16.437Z,10.72
2018-06-03T20:20:45.057Z,9.98
2018-06-03T20:23:20.279Z,9.83
2018-06-03T20:25:48.905Z,11.45
2018-06-03T20:28:17.531Z,10.00
2018-06-03T20:30:46.228Z,9.35
2018-06-03T20:33:14.910Z,10.25
2018-06-03T20:35:43.538Z,10.03
2018-06-03T20:38:12.212Z,10.48
2018-06-03T20:40:40.889Z,10.40
2018-06-03T20:43:09.615Z,9.98
2018-06-03T20:45:38.328Z,12.00
2018-06-03T20:48:07.023Z,9.88
2018-06-03T20:50:35.685Z,11.35
2018-06-03T20:53:04.319Z,11.70
2018-06-03T20:55:33.033Z,10.13
2018-06-03T20:58:01.719Z,10.32
2018-06-03T21:00:30.394Z,10.65
2018-06-03T21:02:59.062Z,9.98
2018-06-03T21:05:27.716Z,9.15
2018-06-03T21:07:56.522Z,10.00
2018-06-03T21:10:25.165Z,9.53
2018-06-03T21:12:53.857Z,11.10
2018-06-03T21:15:22.501Z,9.83
2018-06-03T21:17:51.180Z,10.23
2018-06-03T21:20:19.869Z,10.47
2018-06-03T21:22:48.720Z,10.23
2018-06-03T21:25:17.447Z,14.00
2018-06-03T21:27:45.749Z,10.68
2018-06-03T21:30:14.408Z,11.10
2018-06-03T21:32:43.057Z,11.90
2018-06-03T21:35:11.763Z,11.70
2018-06-03T21:37:40.408Z,13.05
2018-06-03T21:40:09.087Z,11.63
2018-06-03T21:42:37.692Z,10.68
2018-06-03T21:45:06.386Z,11.97
2018-06-03T21:47:35.175Z,10.85
2018-06-03T21:50:10.277Z,10.70
2018-06-03T21:52:38.903Z,11.08
2018-06-03T21:55:07.543Z,11.20
2018-06-03T21:57:36.244Z,10.08
2018-06-03T22:00:05.658Z,11.57
2018-06-03T22:02:34.323Z,10.23
2018-06-03T22:05:03.005Z,12.85
2018-06-03T22:07:31.682Z,10.70
2018-06-03T22:10:00.347Z,11.30
2018-06-03T22:12:29.560Z,11.60
2018-06-03T22:14:58.206Z,8.60
2018-06-03T22:17:27.104Z,9.25
2018-06-03T22:19:55.767Z,8.78
2018-06-03T22:22:24.415Z,9.70
2018-06-03T22:24:53.096Z,15.15
2018-06-03T22:27:21.746Z,10.30
2018-06-03T22:29:50.447Z,12.05
2018-06-03T22:32:19.136Z,12.45
2018-06-03T22:34:47.805Z,11.68
2018-06-03T22:37:16.460Z,10.00
2018-06-03T22:39:45.125Z,8.93
2018-06-03T22:42:13.786Z,10.53
2018-06-03T22:44:42.538Z,12.03
2018-06-03T22:47:11.242Z,11.03
2018-06-03T22:49:39.939Z,9.80
2018-06-03T22:52:08.639Z,12.77
2018-06-03T22:54:37.267Z,10.47
2018-06-03T22:57:44.252Z,13.57
2018-06-03T23:00:19.990Z,14.47
2018-06-03T23:02:54.329Z,10.07
2018-06-03T23:05:23.009Z,10.90
2018-06-03T23:07:52.165Z,15.53
2018-06-03T23:10:21.023Z,13.17
2018-06-03T23:12:49.991Z,14.07
2018-06-03T23:15:18.714Z,14.53
2018-06-03T23:17:47.419Z,14.57
2018-06-03T23:20:16.110Z,10.13
2018-06-03T23:22:44.749Z,11.47
2018-06-03T23:25:13.441Z,13.10
2018-06-03T23:27:42.415Z,12.23
2018-06-03T23:30:11.064Z,12.20
2018-06-03T23:32:39.738Z,14.67
2018-06-03T23:35:08.475Z,16.70
2018-06-03T23:37:37.120Z,20.47
2018-06-03T23:40:05.781Z,15.87
2018-06-03T23:42:34.501Z,15.00
2018-06-03T23:45:03.129Z,13.47
2018-06-03T23:47:31.794Z,13.53
2018-06-03T23:50:00.461Z,15.40
2018-06-03T23:52:29.132Z,17.13
2018-06-03T23:54:57.790Z,17.80
2018-06-03T23:57:26.461Z,16.60
2018-06-03T23:59:55.113Z,16.40
